sensor_id;sensor_type;location;lat;lon;timestamp;P1;durP1;ratioP1;P2;durP2;ratioP2
64887;SDS011;51386;53.082;8.816;2022-11-24T00:01:05;4.97;;;2.70;;
64887;SDS011;51386;53.082;8.816;2022-11-24T00:03:36;6.13;;;3.30;;
64887;SDS011;51386;53.082;8.816;2022-11-24T00:06:04;9.73;;;3.13;;
64887;SDS011;51386;53.082;8.816;2022-11-24T00:08:32;6.40;;;2.87;;
64887;SDS011;51386;53.082;8.816;2022-11-24T00:11:04;3.90;;;2.90;;
64887;SDS011;51386;53.082;8.816;2022-11-24T00:13:32;6.93;;;3.10;;
64887;SDS011;51386;53.082;8.816;2022-11-24T00:16:04;7.63;;;3.23;;
64887;SDS011;51386;53.082;8.816;2022-11-24T00:18:34;6.03;;;3.03;;
64887;SDS011;51386;53.082;8.816;2022-11-24T00:21:07;10.27;;;3.83;;
64887;SDS011;51386;53.082;8.816;2022-11-24T00:23:35;3.40;;;2.60;;
64887;SDS011;51386;53.082;8.816;2022-11-24T00:26:03;5.83;;;3.07;;
64887;SDS011;51386;53.082;8.816;2022-11-24T00:28:34;4.80;;;2.50;;
64887;SDS011;51386;53.082;8.816;2022-11-24T00:31:02;4.23;;;2.70;;
64887;SDS011;51386;53.082;8.816;2022-11-24T00:33:44;6.10;;;3.53;;
64887;SDS011;51386;53.082;8.816;2022-11-24T00:36:13;6.33;;;3.80;;
64887;SDS011;51386;53.082;8.816;2022-11-24T00:38:42;6.17;;;3.10;;
64887;SDS011;51386;53.082;8.816;2022-11-24T00:41:10;8.20;;;3.93;;
64887;SDS011;51386;53.082;8.816;2022-11-24T00:43:37;5.50;;;2.97;;
64887;SDS011;51386;53.082;8.816;2022-11-24T00:46:05;4.93;;;3.07;;
64887;SDS011;51386;53.082;8.816;2022-11-24T00:48:33;6.07;;;3.10;;
64887;SDS011;51386;53.082;8.816;2022-11-24T00:51:04;7.17;;;3.20;;
64887;SDS011;51386;53.082;8.816;2022-11-24T00:53:33;6.67;;;3.30;;
64887;SDS011;51386;53.082;8.816;2022-11-24T00:56:01;6.23;;;3.77;;
64887;SDS011;51386;53.082;8.816;2022-11-24T00:58:29;7.23;;;3.47;;
64887;SDS011;51386;53.082;8.816;2022-11-24T01:01:00;7.13;;;3.13;;
64887;SDS011;51386;53.082;8.816;2022-11-24T01:03:30;6.40;;;3.30;;
64887;SDS011;51386;53.082;8.816;2022-11-24T01:06:02;7.50;;;3.33;;
64887;SDS011;51386;53.082;8.816;2022-11-24T01:08:31;4.03;;;2.70;;
64887;SDS011;51386;53.082;8.816;2022-11-24T01:11:08;5.63;;;3.23;;
64887;SDS011;51386;53.082;8.816;2022-11-24T01:13:39;8.43;;;3.20;;
64887;SDS011;51386;53.082;8.816;2022-11-24T01:16:12;6.87;;;3.20;;
64887;SDS011;51386;53.082;8.816;2022-11-24T01:18:42;7.97;;;3.17;;
64887;SDS011;51386;53.082;8.816;2022-11-24T01:21:11;7.40;;;3.70;;
64887;SDS011;51386;53.082;8.816;2022-11-24T01:23:41;5.63;;;3.33;;
64887;SDS011;51386;53.082;8.816;2022-11-24T01:26:09;6.93;;;3.07;;
64887;SDS011;51386;53.082;8.816;2022-11-24T01:28:39;3.97;;;3.43;;
64887;SDS011;51386;53.082;8.816;2022-11-24T01:31:13;3.83;;;3.27;;
64887;SDS011;51386;53.082;8.816;2022-11-24T01:33:41;6.97;;;3.80;;
64887;SDS011;51386;53.082;8.816;2022-11-24T01:36:08;4.87;;;3.53;;
64887;SDS011;51386;53.082;8.816;2022-11-24T01:38:37;9.03;;;3.63;;
64887;SDS011;51386;53.082;8.816;2022-11-24T01:41:05;9.93;;;4.17;;
64887;SDS011;51386;53.082;8.816;2022-11-24T01:43:35;5.50;;;3.80;;
64887;SDS011;51386;53.082;8.816;2022-11-24T01:46:03;5.23;;;3.57;;
64887;SDS011;51386;53.082;8.816;2022-11-24T01:48:42;5.77;;;3.40;;
64887;SDS011;51386;53.082;8.816;2022-11-24T01:51:16;4.93;;;3.73;;
64887;SDS011;51386;53.082;8.816;2022-11-24T01:53:50;6.73;;;4.20;;
64887;SDS011;51386;53.082;8.816;2022-11-24T01:56:23;6.97;;;3.90;;
64887;SDS011;51386;53.082;8.816;2022-11-24T01:58:50;4.13;;;3.57;;
64887;SDS011;51386;53.082;8.816;2022-11-24T02:01:23;5.13;;;3.80;;
64887;SDS011;51386;53.082;8.816;2022-11-24T02:03:51;7.83;;;4.13;;
64887;SDS011;51386;53.082;8.816;2022-11-24T02:06:21;6.63;;;3.80;;
64887;SDS011;51386;53.082;8.816;2022-11-24T02:08:54;8.33;;;3.90;;
64887;SDS011;51386;53.082;8.816;2022-11-24T02:11:28;5.53;;;3.87;;
64887;SDS011;51386;53.082;8.816;2022-11-24T02:14:00;4.93;;;3.73;;
64887;SDS011;51386;53.082;8.816;2022-11-24T02:16:29;7.07;;;4.20;;
64887;SDS011;51386;53.082;8.816;2022-11-24T02:18:57;8.33;;;4.47;;
64887;SDS011;51386;53.082;8.816;2022-11-24T02:21:26;6.47;;;4.50;;
64887;SDS011;51386;53.082;8.816;2022-11-24T02:23:54;6.87;;;4.60;;
64887;SDS011;51386;53.082;8.816;2022-11-24T02:26:35;7.60;;;4.50;;
64887;SDS011;51386;53.082;8.816;2022-11-24T02:29:07;6.33;;;4.20;;
64887;SDS011;51386;53.082;8.816;2022-11-24T02:31:36;10.17;;;4.93;;
64887;SDS011;51386;53.082;8.816;2022-11-24T02:34:05;6.30;;;4.13;;
64887;SDS011;51386;53.082;8.816;2022-11-24T02:36:32;7.60;;;4.07;;
64887;SDS011;51386;53.082;8.816;2022-11-24T02:38:59;8.07;;;5.30;;
64887;SDS011;51386;53.082;8.816;2022-11-24T02:41:26;6.00;;;3.90;;
64887;SDS011;51386;53.082;8.816;2022-11-24T02:43:56;7.87;;;4.87;;
64887;SDS011;51386;53.082;8.816;2022-11-24T02:46:26;7.73;;;4.47;;
64887;SDS011;51386;53.082;8.816;2022-11-24T02:48:53;6.37;;;4.60;;
64887;SDS011;51386;53.082;8.816;2022-11-24T02:51:20;6.70;;;4.67;;
64887;SDS011;51386;53.082;8.816;2022-11-24T02:53:48;5.57;;;4.37;;
64887;SDS011;51386;53.082;8.816;2022-11-24T02:56:15;7.17;;;4.30;;
64887;SDS011;51386;53.082;8.816;2022-11-24T02:58:42;6.80;;;4.10;;
64887;SDS011;51386;53.082;8.816;2022-11-24T03:01:10;10.10;;;4.03;;
64887;SDS011;51386;53.082;8.816;2022-11-24T03:03:37;6.40;;;4.80;;
64887;SDS011;51386;53.082;8.816;2022-11-24T03:06:04;12.33;;;4.20;;
64887;SDS011;51386;53.082;8.816;2022-11-24T03:08:31;8.13;;;4.30;;
64887;SDS011;51386;53.082;8.816;2022-11-24T03:10:59;10.80;;;4.67;;
64887;SDS011;51386;53.082;8.816;2022-11-24T03:13:26;5.50;;;3.97;;
64887;SDS011;51386;53.082;8.816;2022-11-24T03:15:53;10.00;;;4.93;;
64887;SDS011;51386;53.082;8.816;2022-11-24T03:18:22;13.63;;;5.37;;
64887;SDS011;51386;53.082;8.816;2022-11-24T03:20:49;7.10;;;4.80;;
64887;SDS011;51386;53.082;8.816;2022-11-24T03:23:16;8.43;;;4.40;;
64887;SDS011;51386;53.082;8.816;2022-11-24T03:25:43;6.83;;;4.37;;
64887;SDS011;51386;53.082;8.816;2022-11-24T03:28:10;8.70;;;4.73;;
64887;SDS011;51386;53.082;8.816;2022-11-24T03:30:37;8.37;;;5.60;;
64887;SDS011;51386;53.082;8.816;2022-11-24T03:33:04;8.67;;;4.83;;
64887;SDS011;51386;53.082;8.816;2022-11-24T03:35:33;10.17;;;5.23;;
64887;SDS011;51386;53.082;8.816;2022-11-24T03:38:00;7.47;;;4.73;;
64887;SDS011;51386;53.082;8.816;2022-11-24T03:40:28;8.20;;;5.17;;
64887;SDS011;51386;53.082;8.816;2022-11-24T03:42:55;8.70;;;5.47;;
64887;SDS011;51386;53.082;8.816;2022-11-24T03:45:22;11.73;;;5.47;;
64887;SDS011;51386;53.082;8.816;2022-11-24T03:48:09;10.33;;;5.70;;
64887;SDS011;51386;53.082;8.816;2022-11-24T03:50:37;10.00;;;5.53;;
64887;SDS011;51386;53.082;8.816;2022-11-24T03:53:04;13.57;;;5.80;;
64887;SDS011;51386;53.082;8.816;2022-11-24T03:55:31;6.57;;;5.07;;
64887;SDS011;51386;53.082;8.816;2022-11-24T03:57:58;7.50;;;5.60;;
64887;SDS011;51386;53.082;8.816;2022-11-24T04:00:25;9.80;;;5.57;;
64887;SDS011;51386;53.082;8.816;2022-11-24T04:02:53;12.87;;;5.50;;
64887;SDS011;51386;53.082;8.816;2022-11-24T04:05:20;10.50;;;5.37;;
64887;SDS011;51386;53.082;8.816;2022-11-24T04:07:48;13.30;;;5.40;;
64887;SDS011;51386;53.082;8.816;2022-11-24T04:10:15;9.63;;;5.43;;
64887;SDS011;51386;53.082;8.816;2022-11-24T04:12:43;7.93;;;5.43;;
64887;SDS011;51386;53.082;8.816;2022-11-24T04:15:10;7.87;;;5.20;;
64887;SDS011;51386;53.082;8.816;2022-11-24T04:17:39;9.23;;;5.87;;
64887;SDS011;51386;53.082;8.816;2022-11-24T04:20:08;10.23;;;5.37;;
64887;SDS011;51386;53.082;8.816;2022-11-24T04:22:37;11.93;;;6.33;;
64887;SDS011;51386;53.082;8.816;2022-11-24T04:25:07;10.80;;;5.73;;
64887;SDS011;51386;53.082;8.816;2022-11-24T04:27:36;9.80;;;5.70;;
64887;SDS011;51386;53.082;8.816;2022-11-24T04:30:04;8.57;;;5.70;;
64887;SDS011;51386;53.082;8.816;2022-11-24T04:32:33;10.67;;;5.83;;
64887;SDS011;51386;53.082;8.816;2022-11-24T04:35:01;11.83;;;5.57;;
64887;SDS011;51386;53.082;8.816;2022-11-24T04:37:29;11.87;;;6.20;;
64887;SDS011;51386;53.082;8.816;2022-11-24T04:39:56;7.80;;;4.37;;
64887;SDS011;51386;53.082;8.816;2022-11-24T04:42:24;11.33;;;5.40;;
64887;SDS011;51386;53.082;8.816;2022-11-24T04:44:51;9.03;;;5.13;;
64887;SDS011;51386;53.082;8.816;2022-11-24T04:47:18;11.53;;;5.47;;
64887;SDS011;51386;53.082;8.816;2022-11-24T04:49:47;11.40;;;5.20;;
64887;SDS011;51386;53.082;8.816;2022-11-24T04:52:15;10.40;;;5.80;;
64887;SDS011;51386;53.082;8.816;2022-11-24T04:54:45;10.23;;;6.03;;
64887;SDS011;51386;53.082;8.816;2022-11-24T04:57:13;9.90;;;5.97;;
64887;SDS011;51386;53.082;8.816;2022-11-24T04:59:44;11.00;;;5.50;;
64887;SDS011;51386;53.082;8.816;2022-11-24T05:02:11;11.77;;;5.37;;
64887;SDS011;51386;53.082;8.816;2022-11-24T05:04:38;12.40;;;6.00;;
64887;SDS011;51386;53.082;8.816;2022-11-24T05:07:05;7.70;;;5.37;;
64887;SDS011;51386;53.082;8.816;2022-11-24T05:09:41;10.80;;;6.03;;
64887;SDS011;51386;53.082;8.816;2022-11-24T05:12:27;11.70;;;5.60;;
64887;SDS011;51386;53.082;8.816;2022-11-24T05:14:58;13.53;;;6.50;;
64887;SDS011;51386;53.082;8.816;2022-11-24T05:17:27;11.10;;;5.90;;
64887;SDS011;51386;53.082;8.816;2022-11-24T05:19:54;17.23;;;7.23;;
64887;SDS011;51386;53.082;8.816;2022-11-24T05:22:22;10.17;;;5.50;;
64887;SDS011;51386;53.082;8.816;2022-11-24T05:24:49;12.03;;;6.03;;
64887;SDS011;51386;53.082;8.816;2022-11-24T05:27:16;12.57;;;5.73;;
64887;SDS011;51386;53.082;8.816;2022-11-24T05:29:43;12.50;;;5.80;;
64887;SDS011;51386;53.082;8.816;2022-11-24T05:32:12;14.57;;;6.67;;
64887;SDS011;51386;53.082;8.816;2022-11-24T05:34:39;11.87;;;6.23;;
64887;SDS011;51386;53.082;8.816;2022-11-24T05:37:06;10.17;;;5.77;;
64887;SDS011;51386;53.082;8.816;2022-11-24T05:39:33;13.93;;;6.23;;
64887;SDS011;51386;53.082;8.816;2022-11-24T05:42:02;15.03;;;5.70;;
64887;SDS011;51386;53.082;8.816;2022-11-24T05:44:50;12.60;;;6.03;;
64887;SDS011;51386;53.082;8.816;2022-11-24T05:47:20;13.40;;;5.73;;
64887;SDS011;51386;53.082;8.816;2022-11-24T05:49:47;12.17;;;6.10;;
64887;SDS011;51386;53.082;8.816;2022-11-24T05:52:14;12.70;;;7.07;;
64887;SDS011;51386;53.082;8.816;2022-11-24T05:54:41;11.60;;;6.13;;
64887;SDS011;51386;53.082;8.816;2022-11-24T05:57:08;11.37;;;6.50;;
64887;SDS011;51386;53.082;8.816;2022-11-24T05:59:35;13.90;;;6.27;;
64887;SDS011;51386;53.082;8.816;2022-11-24T06:02:02;9.47;;;5.77;;
64887;SDS011;51386;53.082;8.816;2022-11-24T06:04:31;13.37;;;6.27;;
64887;SDS011;51386;53.082;8.816;2022-11-24T06:06:58;10.97;;;6.10;;
64887;SDS011;51386;53.082;8.816;2022-11-24T06:09:25;11.03;;;6.83;;
64887;SDS011;51386;53.082;8.816;2022-11-24T06:11:52;14.20;;;7.10;;
64887;SDS011;51386;53.082;8.816;2022-11-24T06:14:19;16.80;;;6.57;;
64887;SDS011;51386;53.082;8.816;2022-11-24T06:16:47;13.87;;;6.87;;
64887;SDS011;51386;53.082;8.816;2022-11-24T06:19:14;18.37;;;6.80;;
64887;SDS011;51386;53.082;8.816;2022-11-24T06:21:42;13.77;;;5.93;;
64887;SDS011;51386;53.082;8.816;2022-11-24T06:24:09;12.17;;;6.10;;
64887;SDS011;51386;53.082;8.816;2022-11-24T06:26:36;15.77;;;6.80;;
64887;SDS011;51386;53.082;8.816;2022-11-24T06:29:03;13.70;;;6.57;;
64887;SDS011;51386;53.082;8.816;2022-11-24T06:31:30;11.40;;;6.57;;
64887;SDS011;51386;53.082;8.816;2022-11-24T06:33:58;12.83;;;6.70;;
64887;SDS011;51386;53.082;8.816;2022-11-24T06:36:25;13.20;;;6.27;;
64887;SDS011;51386;53.082;8.816;2022-11-24T06:38:54;13.80;;;6.30;;
64887;SDS011;51386;53.082;8.816;2022-11-24T06:41:21;12.20;;;5.97;;
64887;SDS011;51386;53.082;8.816;2022-11-24T06:43:48;14.90;;;7.10;;
64887;SDS011;51386;53.082;8.816;2022-11-24T06:46:15;16.87;;;7.47;;
64887;SDS011;51386;53.082;8.816;2022-11-24T06:48:44;16.00;;;7.57;;
64887;SDS011;51386;53.082;8.816;2022-11-24T06:51:11;14.27;;;7.77;;
64887;SDS011;51386;53.082;8.816;2022-11-24T06:53:38;14.33;;;6.67;;
64887;SDS011;51386;53.082;8.816;2022-11-24T06:56:08;14.27;;;6.30;;
64887;SDS011;51386;53.082;8.816;2022-11-24T06:58:42;11.20;;;6.47;;
64887;SDS011;51386;53.082;8.816;2022-11-24T07:01:13;17.23;;;6.33;;
64887;SDS011;51386;53.082;8.816;2022-11-24T07:03:40;9.97;;;5.93;;
64887;SDS011;51386;53.082;8.816;2022-11-24T07:06:07;10.60;;;6.60;;
64887;SDS011;51386;53.082;8.816;2022-11-24T07:08:34;10.93;;;5.73;;
64887;SDS011;51386;53.082;8.816;2022-11-24T07:11:02;13.40;;;5.93;;
64887;SDS011;51386;53.082;8.816;2022-11-24T07:13:32;13.97;;;5.87;;
64887;SDS011;51386;53.082;8.816;2022-11-24T07:16:04;14.17;;;6.10;;
64887;SDS011;51386;53.082;8.816;2022-11-24T07:18:37;17.77;;;6.03;;
64887;SDS011;51386;53.082;8.816;2022-11-24T07:21:04;14.03;;;6.43;;
64887;SDS011;51386;53.082;8.816;2022-11-24T07:23:32;13.73;;;6.60;;
64887;SDS011;51386;53.082;8.816;2022-11-24T07:26:00;13.47;;;5.77;;
64887;SDS011;51386;53.082;8.816;2022-11-24T07:28:34;11.23;;;5.87;;
64887;SDS011;51386;53.082;8.816;2022-11-24T07:31:03;14.63;;;6.43;;
64887;SDS011;51386;53.082;8.816;2022-11-24T07:33:32;16.47;;;6.30;;
64887;SDS011;51386;53.082;8.816;2022-11-24T07:35:59;19.77;;;6.40;;
64887;SDS011;51386;53.082;8.816;2022-11-24T07:38:28;17.33;;;6.30;;
64887;SDS011;51386;53.082;8.816;2022-11-24T07:40:59;11.60;;;5.87;;
64887;SDS011;51386;53.082;8.816;2022-11-24T07:43:29;15.43;;;6.37;;
64887;SDS011;51386;53.082;8.816;2022-11-24T07:46:00;14.67;;;7.33;;
64887;SDS011;51386;53.082;8.816;2022-11-24T07:48:27;14.10;;;6.43;;
64887;SDS011;51386;53.082;8.816;2022-11-24T07:50:57;18.23;;;5.97;;
64887;SDS011;51386;53.082;8.816;2022-11-24T07:53:25;15.23;;;6.80;;
64887;SDS011;51386;53.082;8.816;2022-11-24T07:55:52;14.27;;;5.80;;
64887;SDS011;51386;53.082;8.816;2022-11-24T07:58:21;12.37;;;5.90;;
64887;SDS011;51386;53.082;8.816;2022-11-24T08:00:55;14.63;;;5.60;;
64887;SDS011;51386;53.082;8.816;2022-11-24T08:03:24;14.87;;;5.97;;
64887;SDS011;51386;53.082;8.816;2022-11-24T08:05:52;13.07;;;5.27;;
64887;SDS011;51386;53.082;8.816;2022-11-24T08:08:40;11.30;;;6.00;;
64887;SDS011;51386;53.082;8.816;2022-11-24T08:11:07;11.00;;;5.13;;
64887;SDS011;51386;53.082;8.816;2022-11-24T08:13:37;16.47;;;6.10;;
64887;SDS011;51386;53.082;8.816;2022-11-24T08:16:05;12.17;;;5.77;;
64887;SDS011;51386;53.082;8.816;2022-11-24T08:18:36;16.80;;;5.70;;
64887;SDS011;51386;53.082;8.816;2022-11-24T08:21:04;14.13;;;5.57;;
64887;SDS011;51386;53.082;8.816;2022-11-24T08:23:32;13.63;;;5.60;;
64887;SDS011;51386;53.082;8.816;2022-11-24T08:26:02;11.53;;;4.93;;
64887;SDS011;51386;53.082;8.816;2022-11-24T08:28:30;15.80;;;5.87;;
64887;SDS011;51386;53.082;8.816;2022-11-24T08:31:01;13.53;;;6.10;;
64887;SDS011;51386;53.082;8.816;2022-11-24T08:33:31;14.53;;;6.13;;
64887;SDS011;51386;53.082;8.816;2022-11-24T08:36:04;15.50;;;5.80;;
64887;SDS011;51386;53.082;8.816;2022-11-24T08:38:34;14.30;;;6.80;;
64887;SDS011;51386;53.082;8.816;2022-11-24T08:41:02;13.10;;;5.63;;
64887;SDS011;51386;53.082;8.816;2022-11-24T08:43:32;12.67;;;5.40;;
64887;SDS011;51386;53.082;8.816;2022-11-24T08:46:00;16.60;;;6.20;;
64887;SDS011;51386;53.082;8.816;2022-11-24T08:48:28;11.83;;;4.67;;
64887;SDS011;51386;53.082;8.816;2022-11-24T08:50:55;14.50;;;5.57;;
64887;SDS011;51386;53.082;8.816;2022-11-24T08:53:24;13.47;;;5.83;;
64887;SDS011;51386;53.082;8.816;2022-11-24T08:55:52;11.23;;;5.33;;
64887;SDS011;51386;53.082;8.816;2022-11-24T08:58:24;13.03;;;5.33;;
64887;SDS011;51386;53.082;8.816;2022-11-24T09:00:51;12.97;;;5.83;;
64887;SDS011;51386;53.082;8.816;2022-11-24T09:03:18;12.00;;;4.87;;
64887;SDS011;51386;53.082;8.816;2022-11-24T09:05:46;15.93;;;6.07;;
64887;SDS011;51386;53.082;8.816;2022-11-24T09:08:18;22.47;;;12.17;;
64887;SDS011;51386;53.082;8.816;2022-11-24T09:10:47;16.70;;;7.43;;
64887;SDS011;51386;53.082;8.816;2022-11-24T09:13:14;14.03;;;6.93;;
64887;SDS011;51386;53.082;8.816;2022-11-24T09:15:41;9.87;;;4.93;;
64887;SDS011;51386;53.082;8.816;2022-11-24T09:18:08;17.43;;;5.53;;
64887;SDS011;51386;53.082;8.816;2022-11-24T09:20:36;15.77;;;5.67;;
64887;SDS011;51386;53.082;8.816;2022-11-24T09:23:04;12.07;;;5.23;;
64887;SDS011;51386;53.082;8.816;2022-11-24T09:25:31;14.43;;;4.87;;
64887;SDS011;51386;53.082;8.816;2022-11-24T09:27:59;19.27;;;10.50;;
64887;SDS011;51386;53.082;8.816;2022-11-24T09:30:27;15.00;;;6.77;;
64887;SDS011;51386;53.082;8.816;2022-11-24T09:32:56;17.70;;;5.73;;
64887;SDS011;51386;53.082;8.816;2022-11-24T09:35:24;12.57;;;5.23;;
64887;SDS011;51386;53.082;8.816;2022-11-24T09:37:51;11.63;;;5.67;;
64887;SDS011;51386;53.082;8.816;2022-11-24T09:40:18;16.30;;;6.47;;
64887;SDS011;51386;53.082;8.816;2022-11-24T09:42:49;10.93;;;4.90;;
64887;SDS011;51386;53.082;8.816;2022-11-24T09:45:34;13.33;;;5.13;;
64887;SDS011;51386;53.082;8.816;2022-11-24T09:48:40;11.23;;;5.00;;
64887;SDS011;51386;53.082;8.816;2022-11-24T09:51:23;9.67;;;4.20;;
64887;SDS011;51386;53.082;8.816;2022-11-24T09:53:58;15.67;;;5.30;;
64887;SDS011;51386;53.082;8.816;2022-11-24T09:56:45;13.40;;;4.33;;
64887;SDS011;51386;53.082;8.816;2022-11-24T09:59:14;11.60;;;4.03;;
64887;SDS011;51386;53.082;8.816;2022-11-24T10:01:46;14.40;;;3.90;;
64887;SDS011;51386;53.082;8.816;2022-11-24T10:04:17;12.20;;;4.80;;
64887;SDS011;51386;53.082;8.816;2022-11-24T10:06:50;15.93;;;5.13;;
64887;SDS011;51386;53.082;8.816;2022-11-24T10:09:35;10.50;;;4.30;;
64887;SDS011;51386;53.082;8.816;2022-11-24T10:12:21;14.70;;;4.40;;
64887;SDS011;51386;53.082;8.816;2022-11-24T10:15:14;12.77;;;4.37;;
64887;SDS011;51386;53.082;8.816;2022-11-24T10:18:03;10.27;;;4.07;;
64887;SDS011;51386;53.082;8.816;2022-11-24T10:20:54;15.73;;;4.80;;
64887;SDS011;51386;53.082;8.816;2022-11-24T10:23:35;15.33;;;4.77;;
64887;SDS011;51386;53.082;8.816;2022-11-24T10:26:25;14.80;;;4.80;;
64887;SDS011;51386;53.082;8.816;2022-11-24T10:29:06;10.00;;;4.53;;
64887;SDS011;51386;53.082;8.816;2022-11-24T10:31:45;8.97;;;3.40;;
64887;SDS011;51386;53.082;8.816;2022-11-24T10:34:24;11.13;;;4.37;;
64887;SDS011;51386;53.082;8.816;2022-11-24T10:37:11;17.67;;;4.90;;
64887;SDS011;51386;53.082;8.816;2022-11-24T10:40:02;9.43;;;3.70;;
64887;SDS011;51386;53.082;8.816;2022-11-24T10:42:57;11.60;;;4.37;;
64887;SDS011;51386;53.082;8.816;2022-11-24T10:45:25;10.37;;;4.30;;
64887;SDS011;51386;53.082;8.816;2022-11-24T10:47:54;17.40;;;4.60;;
64887;SDS011;51386;53.082;8.816;2022-11-24T10:50:26;13.53;;;5.33;;
64887;SDS011;51386;53.082;8.816;2022-11-24T10:52:59;11.70;;;5.80;;
64887;SDS011;51386;53.082;8.816;2022-11-24T10:56:01;15.77;;;7.63;;
64887;SDS011;51386;53.082;8.816;2022-11-24T10:58:31;18.70;;;5.43;;
64887;SDS011;51386;53.082;8.816;2022-11-24T11:01:18;13.50;;;4.67;;
64887;SDS011;51386;53.082;8.816;2022-11-24T11:03:58;11.20;;;4.50;;
64887;SDS011;51386;53.082;8.816;2022-11-24T11:06:28;13.70;;;4.63;;
64887;SDS011;51386;53.082;8.816;2022-11-24T11:09:10;11.93;;;3.97;;
64887;SDS011;51386;53.082;8.816;2022-11-24T11:11:45;7.30;;;4.07;;
64887;SDS011;51386;53.082;8.816;2022-11-24T11:14:27;13.73;;;4.60;;
64887;SDS011;51386;53.082;8.816;2022-11-24T11:16:57;13.13;;;5.27;;
64887;SDS011;51386;53.082;8.816;2022-11-24T11:19:30;10.93;;;4.97;;
64887;SDS011;51386;53.082;8.816;2022-11-24T11:22:24;11.33;;;4.70;;
64887;SDS011;51386;53.082;8.816;2022-11-24T11:25:03;13.23;;;5.37;;
64887;SDS011;51386;53.082;8.816;2022-11-24T11:27:43;12.63;;;4.77;;
64887;SDS011;51386;53.082;8.816;2022-11-24T11:30:21;17.07;;;5.37;;
64887;SDS011;51386;53.082;8.816;2022-11-24T11:33:17;10.60;;;4.40;;
64887;SDS011;51386;53.082;8.816;2022-11-24T11:36:09;13.30;;;5.13;;
64887;SDS011;51386;53.082;8.816;2022-11-24T11:38:41;9.60;;;5.13;;
64887;SDS011;51386;53.082;8.816;2022-11-24T11:41:13;11.17;;;5.23;;
64887;SDS011;51386;53.082;8.816;2022-11-24T11:43:48;11.67;;;4.77;;
64887;SDS011;51386;53.082;8.816;2022-11-24T11:46:26;12.43;;;5.27;;
64887;SDS011;51386;53.082;8.816;2022-11-24T11:48:58;12.83;;;4.67;;
64887;SDS011;51386;53.082;8.816;2022-11-24T11:51:29;8.73;;;4.73;;
64887;SDS011;51386;53.082;8.816;2022-11-24T11:54:21;11.57;;;4.93;;
64887;SDS011;51386;53.082;8.816;2022-11-24T11:57:02;11.03;;;4.63;;
64887;SDS011;51386;53.082;8.816;2022-11-24T11:59:46;8.93;;;4.30;;
64887;SDS011;51386;53.082;8.816;2022-11-24T12:02:42;8.60;;;4.13;;
64887;SDS011;51386;53.082;8.816;2022-11-24T12:05:54;11.57;;;5.07;;
64887;SDS011;51386;53.082;8.816;2022-11-24T12:08:41;12.57;;;5.67;;
64887;SDS011;51386;53.082;8.816;2022-11-24T12:11:58;10.57;;;4.47;;
64887;SDS011;51386;53.082;8.816;2022-11-24T12:14:54;8.07;;;4.47;;
64887;SDS011;51386;53.082;8.816;2022-11-24T12:17:37;11.10;;;4.87;;
64887;SDS011;51386;53.082;8.816;2022-11-24T12:20:17;8.70;;;3.93;;
64887;SDS011;51386;53.082;8.816;2022-11-24T12:23:08;10.50;;;5.32;;
64887;SDS011;51386;53.082;8.816;2022-11-24T12:25:49;12.17;;;4.43;;
64887;SDS011;51386;53.082;8.816;2022-11-24T12:28:31;10.55;;;5.13;;
64887;SDS011;51386;53.082;8.816;2022-11-24T12:31:14;9.57;;;4.27;;
64887;SDS011;51386;53.082;8.816;2022-11-24T12:33:57;12.10;;;4.50;;
64887;SDS011;51386;53.082;8.816;2022-11-24T12:37:04;7.17;;;3.57;;
64887;SDS011;51386;53.082;8.816;2022-11-24T12:39:49;8.90;;;4.53;;
64887;SDS011;51386;53.082;8.816;2022-11-24T12:42:29;9.70;;;4.27;;
64887;SDS011;51386;53.082;8.816;2022-11-24T12:45:13;10.83;;;4.80;;
64887;SDS011;51386;53.082;8.816;2022-11-24T12:47:57;11.07;;;4.43;;
64887;SDS011;51386;53.082;8.816;2022-11-24T12:50:40;9.73;;;4.43;;
64887;SDS011;51386;53.082;8.816;2022-11-24T12:53:12;10.17;;;4.30;;
64887;SDS011;51386;53.082;8.816;2022-11-24T12:55:45;9.53;;;4.53;;
64887;SDS011;51386;53.082;8.816;2022-11-24T12:58:15;8.00;;;4.20;;
64887;SDS011;51386;53.082;8.816;2022-11-24T13:01:07;11.50;;;4.27;;
64887;SDS011;51386;53.082;8.816;2022-11-24T13:03:46;7.27;;;3.47;;
64887;SDS011;51386;53.082;8.816;2022-11-24T13:06:34;7.10;;;3.80;;
64887;SDS011;51386;53.082;8.816;2022-11-24T13:09:15;10.37;;;3.80;;
64887;SDS011;51386;53.082;8.816;2022-11-24T13:11:43;10.80;;;4.33;;
64887;SDS011;51386;53.082;8.816;2022-11-24T13:14:16;10.10;;;3.77;;
64887;SDS011;51386;53.082;8.816;2022-11-24T13:16:50;7.90;;;3.80;;
64887;SDS011;51386;53.082;8.816;2022-11-24T13:19:43;8.77;;;3.90;;
64887;SDS011;51386;53.082;8.816;2022-11-24T13:22:14;6.30;;;3.63;;
64887;SDS011;51386;53.082;8.816;2022-11-24T13:25:02;6.93;;;3.73;;
64887;SDS011;51386;53.082;8.816;2022-11-24T13:27:43;6.33;;;3.30;;
64887;SDS011;51386;53.082;8.816;2022-11-24T13:33:35;6.60;;;3.10;;
64887;SDS011;51386;53.082;8.816;2022-11-24T13:39:00;5.33;;;3.63;;
64887;SDS011;51386;53.082;8.816;2022-11-24T13:44:55;6.97;;;3.47;;
64887;SDS011;51386;53.082;8.816;2022-11-24T13:47:31;6.03;;;3.40;;
64887;SDS011;51386;53.082;8.816;2022-11-24T13:50:07;13.03;;;7.27;;
64887;SDS011;51386;53.082;8.816;2022-11-24T13:52:52;8.37;;;4.57;;
64887;SDS011;51386;53.082;8.816;2022-11-24T13:55:32;9.17;;;4.87;;
64887;SDS011;51386;53.082;8.816;2022-11-24T14:01:00;7.50;;;3.33;;
64887;SDS011;51386;53.082;8.816;2022-11-24T14:03:37;6.53;;;3.87;;
64887;SDS011;51386;53.082;8.816;2022-11-24T14:06:34;8.10;;;4.17;;
64887;SDS011;51386;53.082;8.816;2022-11-24T14:09:17;4.17;;;3.33;;
64887;SDS011;51386;53.082;8.816;2022-11-24T14:12:00;5.87;;;3.50;;
64887;SDS011;51386;53.082;8.816;2022-11-24T14:14:36;6.97;;;3.30;;
64887;SDS011;51386;53.082;8.816;2022-11-24T14:17:04;5.93;;;3.77;;
64887;SDS011;51386;53.082;8.816;2022-11-24T14:19:42;5.57;;;3.23;;
64887;SDS011;51386;53.082;8.816;2022-11-24T14:22:16;6.47;;;4.18;;
64887;SDS011;51386;53.082;8.816;2022-11-24T14:24:50;8.47;;;3.63;;
64887;SDS011;51386;53.082;8.816;2022-11-24T14:27:23;8.47;;;3.80;;
64887;SDS011;51386;53.082;8.816;2022-11-24T14:29:55;4.83;;;3.00;;
64887;SDS011;51386;53.082;8.816;2022-11-24T14:32:24;4.87;;;3.00;;
64887;SDS011;51386;53.082;8.816;2022-11-24T14:34:52;6.67;;;3.30;;
64887;SDS011;51386;53.082;8.816;2022-11-24T14:37:21;4.23;;;3.13;;
64887;SDS011;51386;53.082;8.816;2022-11-24T14:39:48;4.70;;;2.53;;
64887;SDS011;51386;53.082;8.816;2022-11-24T14:42:17;5.20;;;2.97;;
64887;SDS011;51386;53.082;8.816;2022-11-24T14:44:48;4.43;;;2.83;;
64887;SDS011;51386;53.082;8.816;2022-11-24T14:47:22;4.93;;;3.07;;
64887;SDS011;51386;53.082;8.816;2022-11-24T14:52:42;5.90;;;3.43;;
64887;SDS011;51386;53.082;8.816;2022-11-24T14:55:26;5.50;;;3.57;;
64887;SDS011;51386;53.082;8.816;2022-11-24T14:57:55;4.97;;;2.90;;
64887;SDS011;51386;53.082;8.816;2022-11-24T15:00:26;5.37;;;3.40;;
64887;SDS011;51386;53.082;8.816;2022-11-24T15:03:12;4.03;;;3.17;;
64887;SDS011;51386;53.082;8.816;2022-11-24T15:05:51;8.53;;;3.47;;
64887;SDS011;51386;53.082;8.816;2022-11-24T15:08:22;9.40;;;3.77;;
64887;SDS011;51386;53.082;8.816;2022-11-24T15:10:55;6.03;;;3.37;;
64887;SDS011;51386;53.082;8.816;2022-11-24T15:13:25;8.07;;;4.20;;
64887;SDS011;51386;53.082;8.816;2022-11-24T15:15:54;5.10;;;3.63;;
64887;SDS011;51386;53.082;8.816;2022-11-24T15:18:32;5.97;;;4.17;;
64887;SDS011;51386;53.082;8.816;2022-11-24T15:21:08;6.03;;;4.13;;
64887;SDS011;51386;53.082;8.816;2022-11-24T15:23:51;5.97;;;4.10;;
64887;SDS011;51386;53.082;8.816;2022-11-24T15:26:46;5.57;;;3.93;;
64887;SDS011;51386;53.082;8.816;2022-11-24T15:29:14;6.20;;;3.90;;